Time;durP1;ratioP1;P1;durP2;ratioP2;P2;SDS_P1;SDS_P2;PMS_P1;PMS_P2;Temp;Humidity;BMP_temperature;BMP_pressure;BME280_temperature;BME280_humidity;BME280_pressure;Samples;Min_cycle;Max_cycle;Signal;HPM_P1;HPM_P2
2022/01/19 00:02:19;;;;;;;16.52;5.47;;;1.70;99.90;;;;;;5098642;28;20035;-89
2022/01/19 00:04:53;;;;;;;17.08;5.40;;;1.70;99.90;;;;;;5095545;28;20024;-89
2022/01/19 00:07:19;;;;;;;21.83;7.05;;;1.70;99.90;;;;;;5077083;28;20020;-90
2022/01/19 00:09:45;;;;;;;15.00;5.32;;;1.70;99.90;;;;;;5095061;28;20020;-90
2022/01/19 00:12:13;;;;;;;12.90;4.95;;;1.70;99.90;;;;;;5083666;28;20531;-89
2022/01/19 00:14:39;;;;;;;19.35;5.80;;;1.70;99.90;;;;;;5077379;28;20065;-90
2022/01/19 00:17:04;;;;;;;16.60;5.80;;;1.60;99.90;;;;;;5095382;28;20637;-89
2022/01/19 00:19:33;;;;;;;17.00;5.70;;;1.60;99.90;;;;;;5095315;28;20020;-90
2022/01/19 00:21:58;;;;;;;19.27;6.65;;;1.70;99.90;;;;;;5107910;28;20062;-89
2022/01/19 00:24:24;;;;;;;20.30;6.25;;;1.70;99.90;;;;;;5094729;28;20055;-90
2022/01/19 00:26:53;;;;;;;29.15;6.82;;;1.60;99.90;;;;;;5095065;28;20494;-89
2022/01/19 00:29:18;;;;;;;20.27;6.18;;;1.70;99.90;;;;;;5104357;28;20031;-89
2022/01/19 00:32:10;;;;;;;27.17;6.82;;;1.70;99.90;;;;;;5101494;28;20028;-89
2022/01/19 00:34:35;;;;;;;17.17;5.50;;;1.80;99.90;;;;;;5096988;28;20035;-89
2022/01/19 00:37:03;;;;;;;22.00;7.88;;;1.80;99.90;;;;;;5097019;28;20032;-90
2022/01/19 00:39:55;;;;;;;12.05;5.57;;;1.90;99.90;;;;;;5095385;28;20031;-90
2022/01/19 00:42:20;;;;;;;17.50;5.78;;;1.90;99.90;;;;;;5096839;28;20045;-89
2022/01/19 00:44:46;;;;;;;20.15;5.63;;;2.00;99.90;;;;;;5092925;28;20069;-90
2022/01/19 00:47:16;;;;;;;18.73;5.93;;;2.00;99.90;;;;;;5094649;28;20024;-90
2022/01/19 00:49:43;;;;;;;11.00;5.15;;;2.00;99.90;;;;;;5094505;28;20020;-90
2022/01/19 00:52:10;;;;;;;11.50;4.68;;;2.00;99.90;;;;;;5094813;28;20046;-89
2022/01/19 00:54:36;;;;;;;15.95;6.18;;;2.00;99.90;;;;;;5094045;28;20024;-89
2022/01/19 00:57:02;;;;;;;13.98;6.00;;;1.90;99.90;;;;;;5094447;28;20020;-90
2022/01/19 00:59:28;;;;;;;18.02;6.95;;;1.90;99.90;;;;;;5075996;28;20077;-90
2022/01/19 01:02:00;;;;;;;15.25;5.68;;;1.80;99.90;;;;;;5083654;28;20120;-90
2022/01/19 01:04:26;;;;;;;12.35;5.40;;;1.80;99.90;;;;;;5076081;28;20028;-89
2022/01/19 01:06:51;;;;;;;17.95;6.63;;;1.70;99.90;;;;;;5075977;28;20400;-90
2022/01/19 01:09:18;;;;;;;20.85;5.43;;;1.50;99.90;;;;;;5075549;28;20031;-89
2022/01/19 01:11:58;;;;;;;10.13;5.53;;;1.60;99.90;;;;;;5103102;28;20024;-90
2022/01/19 01:20:07;;;;;;;13.18;7.05;;;1.70;99.90;;;;;;5114501;28;20046;-90
2022/01/19 01:22:34;;;;;;;11.57;6.20;;;1.70;99.90;;;;;;5113842;28;20050;-90
2022/01/19 01:25:01;;;;;;;19.25;6.72;;;1.70;99.90;;;;;;5114265;28;20030;-89
2022/01/19 01:27:53;;;;;;;18.73;6.88;;;1.70;99.90;;;;;;5096992;28;20031;-90
2022/01/19 01:30:19;;;;;;;17.27;6.20;;;1.70;99.90;;;;;;5080420;28;20169;-89
2022/01/19 01:32:45;;;;;;;16.50;6.80;;;1.70;99.90;;;;;;5084146;28;20031;-86
2022/01/19 01:35:17;;;;;;;12.07;6.22;;;1.60;99.90;;;;;;5098452;28;20024;-87
2022/01/19 01:37:42;;;;;;;20.52;6.68;;;1.60;99.90;;;;;;5082277;28;20077;-86
2022/01/19 01:40:12;;;;;;;25.92;6.47;;;1.70;99.90;;;;;;5113653;28;20426;-86
2022/01/19 01:42:48;;;;;;;19.10;6.60;;;1.60;99.90;;;;;;5107696;28;20103;-86
2022/01/19 01:45:16;;;;;;;16.02;6.03;;;1.70;99.90;;;;;;5075528;28;20020;-86
2022/01/19 01:47:50;;;;;;;18.77;6.90;;;1.60;99.90;;;;;;5075394;28;20028;-86
2022/01/19 01:55:31;;;;;;;21.88;7.30;;;1.40;99.90;;;;;;5093175;28;20034;-86
2022/01/19 01:57:57;;;;;;;15.48;6.18;;;1.30;99.90;;;;;;5075283;28;20027;-87
2022/01/19 02:00:25;;;;;;;15.57;6.45;;;1.30;99.90;;;;;;5093144;28;20028;-86
2022/01/19 02:03:06;;;;;;;12.63;6.60;;;1.30;99.90;;;;;;5084962;28;20105;-86
2022/01/19 02:05:35;;;;;;;15.82;6.65;;;1.30;99.90;;;;;;5113542;28;20020;-87
2022/01/19 02:08:17;;;;;;;24.73;7.40;;;1.30;99.90;;;;;;5101997;28;20605;-86
2022/01/19 02:16:33;;;;;;;14.30;5.97;;;1.20;99.90;;;;;;5102470;28;20068;-86
2022/01/19 02:21:56;;;;;;;12.75;6.43;;;1.20;99.90;;;;;;5087808;28;20387;-87
2022/01/19 02:24:29;;;;;;;14.23;6.93;;;1.20;99.90;;;;;;5111075;28;20028;-86
2022/01/19 02:27:09;;;;;;;22.00;7.43;;;1.20;99.90;;;;;;5094661;28;20039;-86
2022/01/19 02:41:02;;;;;;;16.65;6.97;;;1.00;99.90;;;;;;5076954;28;20124;-86
2022/01/19 02:43:29;;;;;;;15.82;7.03;;;1.00;99.90;;;;;;5102591;28;20023;-86
2022/01/19 02:51:31;;;;;;;17.10;6.97;;;0.90;99.90;;;;;;5098604;28;20034;-86
2022/01/19 02:53:56;;;;;;;16.45;6.93;;;1.00;99.90;;;;;;5092118;28;20464;-86
2022/01/19 02:56:38;;;;;;;18.25;7.55;;;1.00;99.90;;;;;;5104336;28;20023;-86
2022/01/19 02:59:21;;;;;;;9.38;6.05;;;1.00;99.90;;;;;;5102803;28;20031;-86
2022/01/19 03:09:46;;;;;;;14.68;6.93;;;1.00;99.90;;;;;;5108447;28;20387;-86
2022/01/19 03:12:12;;;;;;;15.50;7.35;;;1.00;99.90;;;;;;5097678;28;20078;-87
2022/01/19 03:14:42;;;;;;;15.80;7.00;;;1.00;99.90;;;;;;5116631;28;20015;-86
2022/01/19 03:17:10;;;;;;;12.15;7.13;;;1.10;99.90;;;;;;5116582;28;20125;-86
2022/01/19 03:19:36;;;;;;;11.60;6.30;;;1.10;99.90;;;;;;5116529;28;20016;-85
2022/01/19 03:22:32;;;;;;;18.70;7.78;;;1.10;99.90;;;;;;5115925;28;20035;-85
2022/01/19 03:24:57;;;;;;;18.48;7.85;;;1.20;99.90;;;;;;5075773;28;20047;-86
2022/01/19 03:27:23;;;;;;;17.90;9.05;;;1.30;99.90;;;;;;5087184;28;20036;-86
2022/01/19 03:30:04;;;;;;;15.27;8.45;;;1.30;99.90;;;;;;5095741;28;20035;-86
2022/01/19 03:32:30;;;;;;;25.95;11.48;;;1.50;99.90;;;;;;5101823;28;20400;-86
2022/01/19 03:35:14;;;;;;;13.95;8.68;;;1.50;99.90;;;;;;5116274;28;20027;-86
2022/01/19 03:37:39;;;;;;;18.40;8.18;;;1.60;99.90;;;;;;5115764;28;20136;-86
2022/01/19 03:40:07;;;;;;;18.77;8.68;;;1.70;99.90;;;;;;5116129;28;20126;-86
2022/01/19 03:42:33;;;;;;;18.45;8.40;;;1.60;99.90;;;;;;5115835;28;20024;-86
2022/01/19 03:44:58;;;;;;;11.02;6.15;;;1.60;99.90;;;;;;5116170;28;20111;-86
2022/01/19 03:48:21;;;;;;;9.88;6.35;;;1.60;99.90;;;;;;5100940;28;20020;-86
2022/01/19 03:50:47;;;;;;;13.35;6.65;;;1.60;99.90;;;;;;5095541;28;20030;-86
2022/01/19 03:53:13;;;;;;;9.40;5.90;;;1.40;99.90;;;;;;5095164;28;20024;-86
2022/01/19 03:55:40;;;;;;;15.07;6.28;;;1.50;99.90;;;;;;5095375;28;20024;-86
2022/01/19 03:58:05;;;;;;;15.27;6.93;;;1.30;99.90;;;;;;5095450;28;20031;-86
2022/01/19 04:00:35;;;;;;;15.90;5.57;;;1.30;99.90;;;;;;5095185;28;20032;-86
2022/01/19 04:03:01;;;;;;;13.25;7.10;;;1.20;99.90;;;;;;5095257;28;20051;-86
2022/01/19 04:08:18;;;;;;;12.02;7.75;;;1.30;99.90;;;;;;5096008;28;20459;-86
2022/01/19 04:10:43;;;;;;;9.80;7.40;;;1.40;99.90;;;;;;5108588;28;20488;-85
2022/01/19 04:13:25;;;;;;;9.75;6.25;;;1.50;99.90;;;;;;5095159;28;20021;-86
2022/01/19 04:15:57;;;;;;;12.45;7.53;;;1.40;99.90;;;;;;5093721;28;20115;-86
2022/01/19 04:18:23;;;;;;;12.60;6.80;;;1.50;99.90;;;;;;5088140;28;20035;-86
2022/01/19 04:21:03;;;;;;;9.30;5.97;;;1.50;99.90;;;;;;5096317;28;20456;-86
2022/01/19 04:23:29;;;;;;;9.20;5.82;;;1.50;99.90;;;;;;5114489;28;20035;-86
2022/01/19 04:25:55;;;;;;;12.27;5.63;;;1.40;99.90;;;;;;5115246;28;20023;-86
2022/01/19 04:28:20;;;;;;;6.75;5.07;;;1.40;99.90;;;;;;5111190;28;20111;-86
2022/01/19 04:30:46;;;;;;;8.88;5.65;;;1.40;99.90;;;;;;5094563;28;20028;-86
2022/01/19 04:33:23;;;;;;;12.63;6.32;;;1.40;99.90;;;;;;5103136;28;20024;-86
2022/01/19 04:35:53;;;;;;;13.93;6.15;;;1.40;99.90;;;;;;5094616;28;20525;-86
2022/01/19 05:04:08;;;;;;;9.02;5.18;;;1.80;99.90;;;;;;5096186;28;20036;-86
2022/01/19 05:06:03;;;;;;;5.70;4.47;;;1.90;99.90;;;;;;5076130;28;20028;-86
2022/01/19 05:14:16;;;;;;;10.55;5.03;;;2.00;99.90;;;;;;5112909;28;20493;-85
2022/01/19 05:16:45;;;;;;;6.70;4.15;;;1.90;99.90;;;;;;5092486;28;20062;-85
2022/01/19 05:19:10;;;;;;;7.03;4.18;;;1.80;99.90;;;;;;5093940;28;20099;-86
2022/01/19 05:21:36;;;;;;;4.70;3.88;;;1.70;99.90;;;;;;5093986;28;20495;-85
2022/01/19 05:24:04;;;;;;;7.82;4.70;;;1.60;99.90;;;;;;5093586;28;20051;-85
2022/01/19 05:26:35;;;;;;;5.20;4.32;;;1.50;99.90;;;;;;5093765;28;20027;-85
2022/01/19 05:29:00;;;;;;;7.38;4.07;;;1.40;99.90;;;;;;5093694;28;20047;-85
2022/01/19 05:31:26;;;;;;;10.93;4.88;;;1.40;99.90;;;;;;5093187;28;20085;-85
2022/01/19 05:33:53;;;;;;;7.45;4.00;;;1.20;99.90;;;;;;5093623;28;20051;-86
2022/01/19 05:36:21;;;;;;;14.05;5.10;;;1.10;99.90;;;;;;5102581;28;20520;-86
2022/01/19 05:38:46;;;;;;;9.55;4.03;;;1.10;99.90;;;;;;5113655;28;20016;-85
2022/01/19 05:41:12;;;;;;;7.95;3.70;;;1.00;99.90;;;;;;5093059;28;20135;-85
2022/01/19 05:43:39;;;;;;;4.20;3.42;;;1.00;99.90;;;;;;5113890;28;20024;-85
2022/01/19 05:46:04;;;;;;;4.20;3.53;;;0.80;99.90;;;;;;5113703;28;20019;-85
2022/01/19 05:48:30;;;;;;;6.40;4.03;;;0.80;99.90;;;;;;5095620;28;20028;-85
2022/01/19 05:50:59;;;;;;;5.72;3.60;;;0.80;99.90;;;;;;5095397;28;20024;-85
2022/01/19 05:53:25;;;;;;;4.47;3.28;;;0.80;99.90;;;;;;5095080;28;20030;-85
2022/01/19 05:55:51;;;;;;;5.15;3.47;;;0.70;99.90;;;;;;5113727;28;20020;-85
2022/01/19 05:58:17;;;;;;;4.93;3.72;;;0.70;99.90;;;;;;5110430;28;21351;-85
2022/01/19 06:00:42;;;;;;;7.78;4.75;;;0.70;99.90;;;;;;5094263;28;20077;-86
2022/01/19 06:03:08;;;;;;;3.42;3.08;;;0.80;99.90;;;;;;5113574;28;20416;-85
2022/01/19 06:05:41;;;;;;;4.05;2.92;;;0.70;99.90;;;;;;5113641;28;20475;-86
2022/01/19 06:10:54;;;;;;;2.85;2.45;;;0.80;99.90;;;;;;5108075;28;20569;-86
2022/01/19 06:13:23;;;;;;;2.80;2.60;;;0.70;99.90;;;;;;5113403;28;20016;-86
2022/01/19 06:15:50;;;;;;;8.30;3.10;;;0.70;99.90;;;;;;5095107;28;20016;-86
2022/01/19 06:18:16;;;;;;;3.25;2.92;;;0.70;99.90;;;;;;5113416;28;20399;-86
2022/01/19 06:20:43;;;;;;;2.67;2.38;;;0.70;99.90;;;;;;5105704;28;20024;-85
2022/01/19 06:23:10;;;;;;;3.17;2.72;;;0.60;99.90;;;;;;5074074;28;20024;-85
2022/01/19 06:25:36;;;;;;;3.92;3.10;;;0.60;99.90;;;;;;5074436;28;20031;-85
2022/01/19 06:28:03;;;;;;;3.72;2.92;;;0.60;99.90;;;;;;5102685;28;20089;-85
2022/01/19 06:30:34;;;;;;;4.35;2.95;;;0.60;99.90;;;;;;5113188;28;20049;-85
2022/01/19 06:32:59;;;;;;;6.22;4.88;;;0.60;99.90;;;;;;5101088;28;20024;-86
2022/01/19 06:35:25;;;;;;;6.65;4.50;;;0.60;99.90;;;;;;5092476;28;20027;-84
2022/01/19 06:37:50;;;;;;;5.38;4.10;;;0.70;99.90;;;;;;5098698;28;20106;-86
2022/01/19 06:40:19;;;;;;;6.60;4.72;;;0.80;99.90;;;;;;5094307;28;20055;-85
2022/01/19 06:42:44;;;;;;;9.50;4.35;;;0.90;99.90;;;;;;5111462;28;20073;-86
2022/01/19 06:45:11;;;;;;;6.72;4.90;;;1.10;99.90;;;;;;5104872;28;20107;-86
2022/01/19 06:47:38;;;;;;;4.22;3.83;;;1.10;99.90;;;;;;5096559;28;20020;-86
2022/01/19 06:50:06;;;;;;;5.13;4.38;;;1.10;99.90;;;;;;5095664;28;20035;-86
2022/01/19 06:52:31;;;;;;;6.47;4.45;;;1.20;99.90;;;;;;5096886;28;20028;-85
2022/01/19 06:55:03;;;;;;;4.18;3.65;;;1.20;99.90;;;;;;5078521;28;20020;-86
2022/01/19 06:57:28;;;;;;;4.70;4.13;;;1.20;99.90;;;;;;5076477;28;20522;-85
2022/01/19 06:59:54;;;;;;;7.68;4.35;;;1.20;99.90;;;;;;5090108;28;20020;-85
2022/01/19 07:02:19;;;;;;;5.30;4.20;;;1.10;99.90;;;;;;5094819;28;20077;-85
2022/01/19 07:04:49;;;;;;;8.13;4.97;;;1.10;99.90;;;;;;5097190;28;20103;-85
2022/01/19 07:07:16;;;;;;;8.20;5.88;;;1.00;99.90;;;;;;5103020;28;20027;-85
2022/01/19 07:09:42;;;;;;;9.63;6.68;;;1.00;99.90;;;;;;5116595;28;20371;-85
2022/01/19 07:12:08;;;;;;;8.00;5.82;;;1.00;99.90;;;;;;5102877;28;20027;-85
2022/01/19 07:14:33;;;;;;;8.63;6.30;;;1.00;99.90;;;;;;5113607;28;20391;-85
2022/01/19 07:16:59;;;;;;;8.60;5.75;;;1.00;99.90;;;;;;5103167;28;20030;-85
2022/01/19 07:19:24;;;;;;;8.40;5.80;;;1.00;99.90;;;;;;5107292;28;20025;-85
2022/01/19 07:21:50;;;;;;;7.18;5.22;;;1.00;99.90;;;;;;5095382;28;20028;-85
2022/01/19 07:24:16;;;;;;;5.30;4.57;;;0.90;99.90;;;;;;5100509;28;20101;-86
2022/01/19 07:26:42;;;;;;;6.63;5.30;;;1.00;99.90;;;;;;5095534;28;20111;-85
2022/01/19 07:29:08;;;;;;;8.65;6.15;;;0.90;99.90;;;;;;5110606;28;20035;-85
2022/01/19 07:31:33;;;;;;;10.30;6.25;;;1.00;99.90;;;;;;5094310;28;20034;-85
2022/01/19 07:33:59;;;;;;;8.13;5.50;;;1.00;99.90;;;;;;5104049;28;20020;-85
2022/01/19 07:36:25;;;;;;;10.27;4.97;;;1.00;99.90;;;;;;5082981;28;20356;-85
2022/01/19 07:38:51;;;;;;;9.18;5.28;;;0.90;99.90;;;;;;5116011;28;20023;-85
2022/01/19 07:41:18;;;;;;;7.70;5.10;;;0.90;99.90;;;;;;5115146;28;20036;-85
2022/01/19 07:43:44;;;;;;;4.85;4.22;;;0.80;99.90;;;;;;5086198;28;20081;-84
2022/01/19 07:46:09;;;;;;;5.03;4.07;;;0.80;99.90;;;;;;5109813;28;20433;-85
2022/01/19 07:48:35;;;;;;;8.52;5.05;;;0.80;99.90;;;;;;5077537;28;20024;-85
2022/01/19 07:51:01;;;;;;;8.98;6.32;;;0.70;99.90;;;;;;5076573;28;20077;-85
2022/01/19 07:53:26;;;;;;;6.07;5.15;;;0.80;99.90;;;;;;5098076;28;20016;-85
2022/01/19 07:55:53;;;;;;;9.63;6.60;;;0.70;99.90;;;;;;5084081;28;20046;-85
2022/01/19 07:58:19;;;;;;;9.25;7.38;;;0.80;99.90;;;;;;5108953;28;20438;-85
2022/01/19 08:00:45;;;;;;;9.00;6.40;;;0.90;99.90;;;;;;5083997;28;20024;-85
2022/01/19 08:03:11;;;;;;;8.32;6.50;;;1.00;99.90;;;;;;5086327;28;20506;-85
2022/01/19 08:05:38;;;;;;;8.90;6.82;;;1.10;99.90;;;;;;5094571;28;20024;-85
2022/01/19 08:08:04;;;;;;;10.43;7.38;;;1.20;99.90;;;;;;5100784;28;20028;-86
2022/01/19 08:10:31;;;;;;;8.98;7.32;;;1.20;99.90;;;;;;5115061;28;20471;-85
2022/01/19 08:13:01;;;;;;;12.27;8.00;;;1.30;99.90;;;;;;5099096;28;20035;-85
2022/01/19 08:15:26;;;;;;;11.65;7.50;;;1.30;99.90;;;;;;5106199;28;20367;-85
2022/01/19 08:17:52;;;;;;;16.65;6.90;;;1.30;99.90;;;;;;5086417;28;20027;-86
2022/01/19 08:20:18;;;;;;;7.47;6.00;;;1.40;99.90;;;;;;5100870;28;20107;-86
2022/01/19 08:22:44;;;;;;;12.55;5.50;;;1.40;99.90;;;;;;5100101;28;20028;-85
2022/01/19 08:25:10;;;;;;;10.10;7.40;;;1.50;99.90;;;;;;5104425;28;20035;-89
2022/01/19 08:27:36;;;;;;;11.95;8.27;;;1.70;99.90;;;;;;5096776;28;20035;-89
2022/01/19 08:30:04;;;;;;;13.40;8.07;;;1.60;99.90;;;;;;5093636;28;20047;-89
2022/01/19 08:32:30;;;;;;;15.95;8.32;;;1.70;99.90;;;;;;5082872;28;20024;-89
2022/01/19 08:34:56;;;;;;;8.52;6.50;;;1.70;99.90;;;;;;5098479;28;20382;-89
2022/01/19 08:37:23;;;;;;;9.15;7.78;;;1.80;99.90;;;;;;5093009;28;20052;-89
2022/01/19 08:39:48;;;;;;;10.25;7.53;;;1.90;99.90;;;;;;5098601;28;20028;-89
2022/01/19 08:42:14;;;;;;;9.25;7.63;;;1.90;99.90;;;;;;5075802;28;20517;-89
2022/01/19 08:44:40;;;;;;;8.75;7.00;;;2.00;99.90;;;;;;5084432;28;20073;-89
2022/01/19 08:47:07;;;;;;;9.38;7.93;;;2.10;99.90;;;;;;5106025;28;20525;-88
2022/01/19 08:49:34;;;;;;;12.45;8.93;;;2.20;99.90;;;;;;5075298;28;20392;-89
2022/01/19 08:52:02;;;;;;;9.15;7.32;;;2.40;99.90;;;;;;5084895;28;20051;-88
2022/01/19 08:54:27;;;;;;;9.15;7.22;;;2.40;99.90;;;;;;5086606;28;20431;-87
2022/01/19 08:56:53;;;;;;;10.73;7.45;;;2.40;99.90;;;;;;5113760;28;20069;-87
2022/01/19 08:59:19;;;;;;;8.30;6.50;;;2.50;99.90;;;;;;5113774;28;20023;-88
2022/01/19 09:01:44;;;;;;;8.45;6.63;;;2.60;99.90;;;;;;5114002;28;20392;-88
2022/01/19 09:04:10;;;;;;;10.27;7.15;;;2.60;99.90;;;;;;5113256;28;20027;-90
2022/01/19 09:06:36;;;;;;;7.85;6.50;;;2.70;99.90;;;;;;5103625;28;20098;-87
2022/01/19 09:09:02;;;;;;;6.55;5.80;;;2.70;99.90;;;;;;5095605;28;20104;-88
2022/01/19 09:11:27;;;;;;;8.52;6.00;;;2.80;99.90;;;;;;5105967;28;20058;-88
2022/01/19 09:13:53;;;;;;;11.57;6.82;;;2.80;99.90;;;;;;5113716;28;20024;-88
2022/01/19 09:16:19;;;;;;;13.10;8.00;;;2.80;99.90;;;;;;5113587;28;20076;-87
2022/01/19 09:18:44;;;;;;;8.60;5.70;;;2.90;99.90;;;;;;5113565;28;20019;-88
2022/01/19 09:21:10;;;;;;;10.73;5.95;;;2.90;99.90;;;;;;5094131;28;20047;-88
2022/01/19 09:23:37;;;;;;;8.88;5.35;;;3.00;99.90;;;;;;5094571;28;20060;-88
2022/01/19 09:26:03;;;;;;;5.00;4.40;;;3.00;99.90;;;;;;5111589;28;20110;-88
2022/01/19 09:28:29;;;;;;;5.05;4.55;;;3.00;99.90;;;;;;5101088;28;20031;-89
2022/01/19 09:30:59;;;;;;;6.53;5.45;;;3.00;99.90;;;;;;5075051;28;20042;-88
2022/01/19 09:33:28;;;;;;;5.82;5.13;;;3.10;99.90;;;;;;5092364;28;20468;-88
2022/01/19 09:38:30;;;;;;;8.10;6.13;;;3.20;99.90;;;;;;5101048;28;20039;-88
2022/01/19 09:40:56;;;;;;;6.72;5.43;;;3.30;99.90;;;;;;5092736;28;20067;-88
2022/01/19 09:43:22;;;;;;;7.85;5.82;;;3.30;99.90;;;;;;5087426;28;20035;-89
2022/01/19 09:45:56;;;;;;;6.95;5.85;;;3.20;99.90;;;;;;5080619;28;20028;-88
2022/01/19 09:48:22;;;;;;;10.23;6.82;;;3.30;99.90;;;;;;5074466;28;20379;-87
2022/01/19 09:50:47;;;;;;;6.90;6.20;;;3.30;99.90;;;;;;5074158;28;20028;-88
2022/01/19 09:53:15;;;;;;;9.18;6.38;;;3.40;99.90;;;;;;5092092;28;20020;-88
2022/01/19 09:55:43;;;;;;;8.27;6.10;;;3.40;99.90;;;;;;5074230;28;20085;-88
2022/01/19 09:58:09;;;;;;;10.77;7.07;;;3.30;99.90;;;;;;5092371;28;20034;-88
2022/01/19 10:00:36;;;;;;;7.25;6.18;;;3.40;99.90;;;;;;5077294;28;20036;-88
2022/01/19 10:03:37;;;;;;;7.78;6.10;;;3.40;99.90;;;;;;5091514;28;20391;-88
2022/01/19 10:06:11;;;;;;;8.80;6.05;;;3.40;99.90;;;;;;5042900;28;20040;-88
2022/01/19 10:08:46;;;;;;;8.33;6.47;;;3.30;99.90;;;;;;5101735;28;20079;-88
2022/01/19 10:16:59;;;;;;;8.10;5.60;;;3.50;99.90;;;;;;5112206;28;20053;-88
2022/01/19 10:19:38;;;;;;;9.57;5.57;;;3.50;99.90;;;;;;5093417;28;20020;-88
2022/01/19 10:22:14;;;;;;;7.28;5.22;;;3.50;99.90;;;;;;5094188;28;20023;-89
2022/01/19 10:24:42;;;;;;;5.68;5.05;;;3.60;99.90;;;;;;5095716;28;20491;-88
2022/01/19 10:27:19;;;;;;;4.95;4.13;;;3.60;99.90;;;;;;5071415;28;20065;-88
2022/01/19 10:29:46;;;;;;;6.68;4.65;;;3.80;99.90;;;;;;5091036;28;20024;-88
2022/01/19 10:32:13;;;;;;;9.35;5.28;;;3.80;99.90;;;;;;5079025;28;20164;-92
2022/01/19 10:34:38;;;;;;;6.50;5.28;;;3.90;99.90;;;;;;5107605;28;20034;-89
2022/01/19 10:37:05;;;;;;;5.15;4.65;;;4.00;99.90;;;;;;5110603;28;20016;-88
2022/01/19 10:40:09;;;;;;;8.43;5.05;;;4.00;99.90;;;;;;5092735;28;20020;-88
2022/01/19 10:42:34;;;;;;;5.35;4.80;;;4.10;99.90;;;;;;5091690;28;20044;-88
2022/01/19 10:45:05;;;;;;;6.50;5.30;;;4.10;99.90;;;;;;5074049;28;20080;-88
2022/01/19 10:47:40;;;;;;;9.80;5.05;;;4.10;99.90;;;;;;5091396;28;20451;-88
2022/01/19 10:50:12;;;;;;;8.98;5.57;;;4.10;99.90;;;;;;5074233;28;20118;-87
2022/01/19 10:52:41;;;;;;;6.38;5.20;;;4.10;99.90;;;;;;5091884;28;20081;-88
2022/01/19 10:55:46;;;;;;;8.27;5.00;;;4.10;99.90;;;;;;5091453;28;20028;-88
2022/01/19 10:58:15;;;;;;;5.43;4.93;;;4.10;99.90;;;;;;5092463;28;20511;-87
2022/01/19 11:00:51;;;;;;;9.23;5.15;;;4.00;99.90;;;;;;5092591;28;20063;-88
2022/01/19 11:03:25;;;;;;;9.10;5.63;;;4.00;99.90;;;;;;5092282;28;20032;-88
2022/01/19 11:05:53;;;;;;;6.68;5.15;;;3.90;99.90;;;;;;5091691;28;20042;-88
2022/01/19 11:08:21;;;;;;;9.98;7.15;;;3.90;99.90;;;;;;5092106;28;20040;-88
2022/01/19 11:10:49;;;;;;;6.70;5.60;;;3.90;99.90;;;;;;5091876;28;20491;-88
2022/01/19 11:13:28;;;;;;;7.45;5.85;;;3.90;99.90;;;;;;5091482;28;20047;-87
2022/01/19 11:16:06;;;;;;;7.43;6.28;;;3.90;99.90;;;;;;5092493;28;20020;-89
2022/01/19 11:18:35;;;;;;;9.05;5.90;;;3.90;99.90;;;;;;5073541;28;20395;-89
2022/01/19 11:21:22;;;;;;;7.65;5.53;;;3.90;99.90;;;;;;5076077;28;20078;-87
2022/01/19 11:24:10;;;;;;;7.68;5.47;;;4.00;99.90;;;;;;5091565;28;20104;-88
2022/01/19 11:26:36;;;;;;;7.13;5.55;;;4.00;99.90;;;;;;5074205;28;20032;-88
2022/01/19 11:29:17;;;;;;;9.57;5.80;;;4.00;99.90;;;;;;5093926;28;20392;-88
2022/01/19 11:32:21;;;;;;;8.80;6.13;;;4.00;99.90;;;;;;5095479;28;20077;-87
2022/01/19 11:34:50;;;;;;;8.65;5.75;;;4.00;99.90;;;;;;5095404;28;20028;-88
2022/01/19 11:37:41;;;;;;;5.45;4.95;;;4.00;99.90;;;;;;5095661;28;20480;-88
2022/01/19 11:40:07;;;;;;;6.55;5.35;;;4.00;99.90;;;;;;5077246;28;20118;-88
2022/01/19 11:42:33;;;;;;;8.32;5.32;;;4.00;99.90;;;;;;5077192;28;20040;-87
2022/01/19 11:44:59;;;;;;;7.30;5.03;;;4.00;99.90;;;;;;5095391;28;20495;-88
2022/01/19 11:47:31;;;;;;;7.75;6.13;;;4.00;99.90;;;;;;5077141;28;20031;-87
2022/01/19 11:49:59;;;;;;;7.20;5.30;;;4.10;99.90;;;;;;5077512;28;20471;-88
2022/01/19 11:52:37;;;;;;;6.90;5.57;;;4.00;99.90;;;;;;5077027;28;20064;-88
2022/01/19 11:55:19;;;;;;;7.20;5.50;;;4.00;99.90;;;;;;5075923;28;20115;-87
2022/01/19 11:57:47;;;;;;;6.38;4.90;;;4.10;99.90;;;;;;5076955;28;20024;-88
2022/01/19 12:00:23;;;;;;;6.55;5.20;;;4.10;99.90;;;;;;5094951;28;20050;-87
2022/01/19 12:03:15;;;;;;;11.73;6.05;;;4.10;99.90;;;;;;5095393;28;20025;-88
2022/01/19 12:05:41;;;;;;;7.47;5.35;;;4.10;99.90;;;;;;5094424;28;20376;-87
2022/01/19 12:08:40;;;;;;;7.05;4.97;;;4.10;99.90;;;;;;5094877;28;20103;-88
2022/01/19 12:11:21;;;;;;;10.30;5.40;;;4.10;99.90;;;;;;5095178;28;20036;-87
2022/01/19 12:19:06;;;;;;;8.65;4.80;;;4.30;99.90;;;;;;5094523;28;20102;-87
2022/01/19 12:21:32;;;;;;;6.50;4.15;;;4.30;99.90;;;;;;5075981;28;20131;-87
2022/01/19 12:24:22;;;;;;;10.15;4.97;;;4.30;99.90;;;;;;5094515;28;20472;-87
2022/01/19 12:26:58;;;;;;;8.68;5.13;;;4.30;99.90;;;;;;5094031;28;21538;-88
2022/01/19 12:29:38;;;;;;;5.32;4.47;;;4.40;99.90;;;;;;5094230;28;20028;-87
2022/01/19 12:32:17;;;;;;;10.15;4.95;;;4.40;99.90;;;;;;5075406;28;20035;-86
2022/01/19 12:34:45;;;;;;;7.03;4.60;;;4.40;99.90;;;;;;5094272;28;20449;-87
2022/01/19 12:37:33;;;;;;;6.47;5.30;;;4.40;99.90;;;;;;5075575;28;20032;-87
2022/01/19 12:40:25;;;;;;;9.98;6.22;;;4.40;99.90;;;;;;5092755;28;20031;-88
2022/01/19 12:42:59;;;;;;;10.88;5.75;;;4.40;99.90;;;;;;5076134;28;20028;-88
2022/01/19 12:45:31;;;;;;;13.63;6.82;;;4.40;99.90;;;;;;5075819;28;20479;-89
2022/01/19 12:48:05;;;;;;;12.50;6.75;;;4.30;99.90;;;;;;5075765;28;20074;-89
2022/01/19 12:50:35;;;;;;;10.88;5.82;;;4.20;99.90;;;;;;5093426;28;20594;-87
2022/01/19 12:53:16;;;;;;;8.23;6.10;;;4.20;99.90;;;;;;5075829;28;20121;-87
2022/01/19 12:55:47;;;;;;;10.07;7.07;;;4.10;99.90;;;;;;5075833;28;20067;-87
2022/01/19 12:58:20;;;;;;;10.05;6.53;;;4.10;99.90;;;;;;5097848;28;20554;-88
2022/01/19 13:00:52;;;;;;;11.15;7.03;;;4.10;99.90;;;;;;5102303;27;20087;-88
2022/01/19 13:03:23;;;;;;;10.52;6.32;;;4.10;99.90;;;;;;5093900;28;20475;-88
2022/01/19 13:06:02;;;;;;;11.32;7.07;;;4.10;99.90;;;;;;5086418;28;20031;-87
2022/01/19 13:08:45;;;;;;;13.07;6.93;;;4.10;99.90;;;;;;5102480;28;20098;-86
2022/01/19 13:11:33;;;;;;;10.85;6.10;;;4.20;99.90;;;;;;5093990;28;20111;-87
2022/01/19 13:14:10;;;;;;;9.38;6.50;;;4.10;99.90;;;;;;5094157;28;20020;-87
2022/01/19 13:16:37;;;;;;;8.85;6.30;;;4.20;99.90;;;;;;5075920;28;20020;-88
2022/01/19 13:19:08;;;;;;;14.32;6.88;;;4.10;99.90;;;;;;5075885;28;20392;-87
2022/01/19 13:21:36;;;;;;;12.32;7.13;;;4.10;99.90;;;;;;5093628;28;20024;-88
2022/01/19 13:24:27;;;;;;;16.95;7.78;;;4.20;99.90;;;;;;5089685;28;20032;-89
2022/01/19 13:26:59;;;;;;;12.18;7.25;;;4.20;99.90;;;;;;5093761;28;20059;-88
2022/01/19 13:29:34;;;;;;;13.68;6.82;;;4.20;99.90;;;;;;5072642;28;20389;-87
2022/01/19 13:32:02;;;;;;;12.95;6.80;;;4.20;99.90;;;;;;5055272;28;20025;-87
2022/01/19 13:34:32;;;;;;;13.63;7.43;;;4.20;99.90;;;;;;5092776;28;20159;-88
2022/01/19 13:37:00;;;;;;;9.73;6.63;;;4.20;99.90;;;;;;5075139;28;20021;-87
2022/01/19 13:39:33;;;;;;;13.23;6.88;;;4.20;99.90;;;;;;5093433;28;20031;-88
2022/01/19 13:42:03;;;;;;;10.57;6.55;;;4.20;99.90;;;;;;5074794;28;20040;-88
2022/01/19 13:44:33;;;;;;;12.98;7.68;;;4.20;99.90;;;;;;5109355;28;20495;-87
2022/01/19 13:47:14;;;;;;;12.52;8.07;;;4.30;99.90;;;;;;5093315;28;20043;-89
2022/01/19 13:49:57;;;;;;;11.38;6.65;;;4.20;99.90;;;;;;5076586;28;20032;-87
2022/01/19 13:52:25;;;;;;;17.77;7.70;;;4.20;99.90;;;;;;5092484;28;20051;-88
2022/01/19 13:55:03;;;;;;;15.45;6.95;;;4.10;99.90;;;;;;5093481;28;20020;-88
2022/01/19 13:57:29;;;;;;;11.70;6.70;;;4.10;99.90;;;;;;5075179;28;20016;-88
2022/01/19 14:00:15;;;;;;;11.80;7.53;;;4.10;99.90;;;;;;5075135;28;20023;-90
2022/01/19 14:02:52;;;;;;;21.30;8.85;;;4.10;99.90;;;;;;5072575;28;20024;-88
2022/01/19 14:05:17;;;;;;;15.45;8.23;;;4.10;99.90;;;;;;5054218;28;20113;-87
2022/01/19 14:07:46;;;;;;;13.77;7.72;;;4.10;99.90;;;;;;5105454;28;20074;-87
2022/01/19 14:10:13;;;;;;;10.60;7.65;;;4.10;99.90;;;;;;5092414;28;20423;-86
2022/01/19 14:12:38;;;;;;;14.80;8.35;;;4.10;99.90;;;;;;5092950;28;20039;-87
2022/01/19 14:15:09;;;;;;;13.95;8.20;;;4.10;99.90;;;;;;5092567;28;20020;-90
2022/01/19 14:17:40;;;;;;;16.05;9.35;;;4.10;99.90;;;;;;5092530;28;20371;-88
2022/01/19 14:20:22;;;;;;;14.70;7.97;;;4.10;99.90;;;;;;5081054;28;20023;-89
2022/01/19 14:22:47;;;;;;;13.43;8.73;;;4.00;99.90;;;;;;5073783;28;20477;-88
2022/01/19 14:25:17;;;;;;;15.10;9.05;;;4.00;99.90;;;;;;5108233;28;20073;-88
2022/01/19 14:27:47;;;;;;;17.65;9.05;;;4.00;99.90;;;;;;5074411;28;20476;-88
2022/01/19 14:30:13;;;;;;;24.25;10.50;;;4.00;99.90;;;;;;5092744;28;20095;-88
2022/01/19 14:32:47;;;;;;;17.13;10.43;;;4.00;99.90;;;;;;5054870;28;20120;-88
2022/01/19 14:35:24;;;;;;;16.00;9.05;;;4.00;99.90;;;;;;5073836;28;20024;-91
2022/01/19 14:37:58;;;;;;;22.67;11.05;;;4.00;99.90;;;;;;5092929;28;20016;-88
2022/01/19 14:40:30;;;;;;;20.13;9.90;;;4.00;99.90;;;;;;5073953;28;20030;-88
2022/01/19 14:42:55;;;;;;;17.05;10.20;;;3.90;99.90;;;;;;5074378;28;20040;-88
2022/01/19 14:45:26;;;;;;;19.73;10.43;;;3.90;99.90;;;;;;5074614;28;20153;-88